Ana Sayfa
METAR-TAF:

METAR-TAF

Havaalanları :

Duplin County Airport

Kenansville, Kuzey Carolina, Amerika Birleşik Devletleri

Enlem: 35-00-00N, Boylam: 077-58-54W, yükseklik: 42 m

Güncel hava durumu gözlemi

Rapor saat 05:55 UTC de 20 dakika önce yapıldı.
Sakin rüzgar
Sıcaklık 0°C
Nem 86%
Basınç 1034 hPa
Görüş mesafesi: 16.1 km
Açık gökyüzü

METAR: KDPL 120555Z AUTO 00000KT 10SM CLR 00/M02 A3054 RMK AO2

Saat: 01:15 (06:15 UTC)


TAF: eksik

4.000'den fazla havaalanı için hava durumu gözlemleri ve tahminleri (METAR ve TAF raporları).

Kullanılabilir istasyonlar harita üzerinde sarı ve kırmızı noktalarla gösterilir.

İstasyonun adını görmek için fareyi noktanın üzerinde gezdirin.

Sonrasında hava gözlem ve tahminlerini görmek için tıklayın.

Haritayı değiştirmek için: yaklaştırmak için siyah artı işaretli yeşil düğmeye ve uzaklaştırmak için de eksi işaretli düğmeye hızla tıklayın; bitişik haritalar için yeşil okları kullanın.


METAR-TAF: